Refton, Pennsylvania
Current Conditions -  °F | °C
As of 7:53 AM on Thursday 30 Oct 2014 (Local Time) from KLNS Reporting Station
Haze Haze  
Wind Chill: 34°   Ceiling: Unl
Heat Index: 39°   Visibility: 4mi
Dew Point: 38°   Wind: 7mph
Humidity: 96%   Direction: 290°WNW
Pressure: 30.03"   Gusts: NA
Location:  39.95°N, 76.23°W
Report Text: KLNS 301153Z 29006KT 4SM BR CLR 04/03 A3003 RMK AO2 SLP169 70005 T00390033 10072 20039 51015
Loading
Personal Weather Stations






























Interactive Weather Map
Tropical Storm Tracking
New forecast layout! Learn more

10-Day Weather Forecast

Advertisements
Track Severe Weather on mobile